sensor_id;sensor_type;location;lat;lon;timestamp;temperature;humidity
20866;DHT22;10593;48.398;10.698;2024-01-16T00:01:07;1.30;50.80
20866;DHT22;10593;48.398;10.698;2024-01-16T00:03:34;1.30;50.80
20866;DHT22;10593;48.398;10.698;2024-01-16T00:06:00;1.30;50.80
20866;DHT22;10593;48.398;10.698;2024-01-16T00:08:26;1.30;50.70
20866;DHT22;10593;48.398;10.698;2024-01-16T00:10:52;1.30;50.70
20866;DHT22;10593;48.398;10.698;2024-01-16T00:13:18;1.30;50.70
20866;DHT22;10593;48.398;10.698;2024-01-16T00:15:44;1.30;50.70
20866;DHT22;10593;48.398;10.698;2024-01-16T00:18:09;1.30;50.80
20866;DHT22;10593;48.398;10.698;2024-01-16T00:20:35;1.30;50.80
20866;DHT22;10593;48.398;10.698;2024-01-16T00:23:01;1.30;50.70
20866;DHT22;10593;48.398;10.698;2024-01-16T00:25:27;1.20;50.70
20866;DHT22;10593;48.398;10.698;2024-01-16T00:27:54;1.20;50.70
20866;DHT22;10593;48.398;10.698;2024-01-16T00:30:20;1.20;50.70
20866;DHT22;10593;48.398;10.698;2024-01-16T00:32:45;1.20;50.70
20866;DHT22;10593;48.398;10.698;2024-01-16T00:35:12;1.20;50.80
20866;DHT22;10593;48.398;10.698;2024-01-16T00:37:37;1.20;50.80
20866;DHT22;10593;48.398;10.698;2024-01-16T00:40:04;1.20;50.80
20866;DHT22;10593;48.398;10.698;2024-01-16T00:42:31;1.20;50.80
20866;DHT22;10593;48.398;10.698;2024-01-16T00:44:57;1.20;50.90
20866;DHT22;10593;48.398;10.698;2024-01-16T00:47:23;1.20;50.80
20866;DHT22;10593;48.398;10.698;2024-01-16T00:49:49;1.20;50.70
20866;DHT22;10593;48.398;10.698;2024-01-16T00:52:15;1.20;50.60
20866;DHT22;10593;48.398;10.698;2024-01-16T00:54:42;1.20;50.70
20866;DHT22;10593;48.398;10.698;2024-01-16T00:57:08;1.20;50.70
20866;DHT22;10593;48.398;10.698;2024-01-16T00:59:34;1.20;50.60
20866;DHT22;10593;48.398;10.698;2024-01-16T01:02:00;1.20;50.50
20866;DHT22;10593;48.398;10.698;2024-01-16T01:04:26;1.20;50.40
20866;DHT22;10593;48.398;10.698;2024-01-16T01:06:51;1.20;50.30
20866;DHT22;10593;48.398;10.698;2024-01-16T01:09:17;1.20;50.30
20866;DHT22;10593;48.398;10.698;2024-01-16T01:11:43;1.10;50.20
20866;DHT22;10593;48.398;10.698;2024-01-16T01:14:08;1.10;50.20
20866;DHT22;10593;48.398;10.698;2024-01-16T01:16:34;1.10;50.10
20866;DHT22;10593;48.398;10.698;2024-01-16T01:19:00;1.10;50.10
20866;DHT22;10593;48.398;10.698;2024-01-16T01:21:26;1.10;50.00
20866;DHT22;10593;48.398;10.698;2024-01-16T01:23:52;1.10;49.90
20866;DHT22;10593;48.398;10.698;2024-01-16T01:26:17;1.10;49.90
20866;DHT22;10593;48.398;10.698;2024-01-16T01:28:44;1.00;49.80
20866;DHT22;10593;48.398;10.698;2024-01-16T01:31:10;1.00;49.70
20866;DHT22;10593;48.398;10.698;2024-01-16T01:33:37;1.00;49.50
20866;DHT22;10593;48.398;10.698;2024-01-16T01:36:02;1.00;50.10
20866;DHT22;10593;48.398;10.698;2024-01-16T01:38:28;0.90;49.40
20866;DHT22;10593;48.398;10.698;2024-01-16T01:40:53;0.90;49.40
20866;DHT22;10593;48.398;10.698;2024-01-16T01:43:20;0.90;49.50
20866;DHT22;10593;48.398;10.698;2024-01-16T01:46:08;0.90;49.30
20866;DHT22;10593;48.398;10.698;2024-01-16T01:48:46;0.80;49.00
20866;DHT22;10593;48.398;10.698;2024-01-16T01:51:18;0.80;49.00
20866;DHT22;10593;48.398;10.698;2024-01-16T01:53:45;0.80;48.90
20866;DHT22;10593;48.398;10.698;2024-01-16T01:56:18;0.80;48.80
20866;DHT22;10593;48.398;10.698;2024-01-16T01:58:47;0.70;48.50
20866;DHT22;10593;48.398;10.698;2024-01-16T02:01:15;0.70;48.50
20866;DHT22;10593;48.398;10.698;2024-01-16T02:03:46;0.70;48.40
20866;DHT22;10593;48.398;10.698;2024-01-16T02:06:13;0.60;48.10
20866;DHT22;10593;48.398;10.698;2024-01-16T02:08:40;0.60;48.10
20866;DHT22;10593;48.398;10.698;2024-01-16T02:11:06;0.60;48.60
20866;DHT22;10593;48.398;10.698;2024-01-16T02:13:32;0.50;48.00
20866;DHT22;10593;48.398;10.698;2024-01-16T02:15:58;0.40;47.90
20866;DHT22;10593;48.398;10.698;2024-01-16T02:18:24;0.40;47.90
20866;DHT22;10593;48.398;10.698;2024-01-16T02:20:50;0.40;47.90
20866;DHT22;10593;48.398;10.698;2024-01-16T02:23:27;0.30;47.80
20866;DHT22;10593;48.398;10.698;2024-01-16T02:25:54;0.30;47.80
20866;DHT22;10593;48.398;10.698;2024-01-16T02:28:20;0.30;47.80
20866;DHT22;10593;48.398;10.698;2024-01-16T02:30:45;0.20;47.70
20866;DHT22;10593;48.398;10.698;2024-01-16T02:33:11;0.20;47.80
20866;DHT22;10593;48.398;10.698;2024-01-16T02:35:37;0.10;47.70
20866;DHT22;10593;48.398;10.698;2024-01-16T02:38:04;0.10;47.70
20866;DHT22;10593;48.398;10.698;2024-01-16T02:40:30;0.10;47.70
20866;DHT22;10593;48.398;10.698;2024-01-16T02:42:55;0.10;47.70
20866;DHT22;10593;48.398;10.698;2024-01-16T02:45:21;0.00;47.50
20866;DHT22;10593;48.398;10.698;2024-01-16T02:47:47;0.00;47.50
20866;DHT22;10593;48.398;10.698;2024-01-16T02:50:13;-0.10;47.50
20866;DHT22;10593;48.398;10.698;2024-01-16T02:52:39;-0.10;47.50
20866;DHT22;10593;48.398;10.698;2024-01-16T02:55:05;-0.10;47.30
20866;DHT22;10593;48.398;10.698;2024-01-16T02:57:31;-0.20;47.20
20866;DHT22;10593;48.398;10.698;2024-01-16T02:59:57;-0.20;47.20
20866;DHT22;10593;48.398;10.698;2024-01-16T03:02:22;-0.20;47.00
20866;DHT22;10593;48.398;10.698;2024-01-16T03:04:49;-0.20;47.00
20866;DHT22;10593;48.398;10.698;2024-01-16T03:07:15;-0.30;47.10
20866;DHT22;10593;48.398;10.698;2024-01-16T03:09:41;-0.30;46.90
20866;DHT22;10593;48.398;10.698;2024-01-16T03:12:07;-0.30;46.80
20866;DHT22;10593;48.398;10.698;2024-01-16T03:14:32;-0.40;46.70
20866;DHT22;10593;48.398;10.698;2024-01-16T03:17:02;-0.40;46.70
20866;DHT22;10593;48.398;10.698;2024-01-16T03:19:28;-0.50;46.70
20866;DHT22;10593;48.398;10.698;2024-01-16T03:21:54;-0.50;46.80
20866;DHT22;10593;48.398;10.698;2024-01-16T03:24:20;-0.50;47.00
20866;DHT22;10593;48.398;10.698;2024-01-16T03:26:45;-0.50;47.30
20866;DHT22;10593;48.398;10.698;2024-01-16T03:29:11;-0.60;47.10
20866;DHT22;10593;48.398;10.698;2024-01-16T03:31:37;-0.60;47.10
20866;DHT22;10593;48.398;10.698;2024-01-16T03:34:03;-0.50;47.50
20866;DHT22;10593;48.398;10.698;2024-01-16T03:36:29;-0.60;47.50
20866;DHT22;10593;48.398;10.698;2024-01-16T03:38:54;-0.50;47.70
20866;DHT22;10593;48.398;10.698;2024-01-16T03:41:20;-0.50;47.70
20866;DHT22;10593;48.398;10.698;2024-01-16T03:43:45;-0.50;47.70
20866;DHT22;10593;48.398;10.698;2024-01-16T03:46:11;-0.50;47.60
20866;DHT22;10593;48.398;10.698;2024-01-16T03:48:37;-0.50;47.40
20866;DHT22;10593;48.398;10.698;2024-01-16T03:51:03;-0.50;47.30
20866;DHT22;10593;48.398;10.698;2024-01-16T03:53:29;-0.50;47.40
20866;DHT22;10593;48.398;10.698;2024-01-16T03:55:54;-0.50;47.30
20866;DHT22;10593;48.398;10.698;2024-01-16T03:58:20;-0.60;47.10
20866;DHT22;10593;48.398;10.698;2024-01-16T04:00:46;-0.60;47.10
20866;DHT22;10593;48.398;10.698;2024-01-16T04:03:12;-0.60;47.10
20866;DHT22;10593;48.398;10.698;2024-01-16T04:05:38;-0.50;47.20
20866;DHT22;10593;48.398;10.698;2024-01-16T04:08:04;-0.50;47.20
20866;DHT22;10593;48.398;10.698;2024-01-16T04:10:30;-0.60;47.10
20866;DHT22;10593;48.398;10.698;2024-01-16T04:12:55;-0.60;47.20
20866;DHT22;10593;48.398;10.698;2024-01-16T04:15:21;-0.60;47.20
20866;DHT22;10593;48.398;10.698;2024-01-16T04:17:47;-0.60;47.10
20866;DHT22;10593;48.398;10.698;2024-01-16T04:20:13;-0.60;47.20
20866;DHT22;10593;48.398;10.698;2024-01-16T04:22:39;-0.60;47.00
20866;DHT22;10593;48.398;10.698;2024-01-16T04:25:05;-0.60;46.80
20866;DHT22;10593;48.398;10.698;2024-01-16T04:27:31;-0.70;46.60
20866;DHT22;10593;48.398;10.698;2024-01-16T04:29:57;-0.70;47.10
20866;DHT22;10593;48.398;10.698;2024-01-16T04:32:23;-0.80;46.50
20866;DHT22;10593;48.398;10.698;2024-01-16T04:34:49;-0.80;46.50
20866;DHT22;10593;48.398;10.698;2024-01-16T04:37:15;-0.80;46.40
20866;DHT22;10593;48.398;10.698;2024-01-16T04:39:40;-0.90;46.30
20866;DHT22;10593;48.398;10.698;2024-01-16T04:42:06;-0.90;46.30
20866;DHT22;10593;48.398;10.698;2024-01-16T04:44:31;-0.90;46.30
20866;DHT22;10593;48.398;10.698;2024-01-16T04:46:57;-1.00;46.10
20866;DHT22;10593;48.398;10.698;2024-01-16T04:49:23;-1.00;46.00
20866;DHT22;10593;48.398;10.698;2024-01-16T04:51:49;-1.00;46.20
20866;DHT22;10593;48.398;10.698;2024-01-16T04:54:14;-1.10;46.20
20866;DHT22;10593;48.398;10.698;2024-01-16T04:56:40;-1.10;46.20
20866;DHT22;10593;48.398;10.698;2024-01-16T04:59:06;-1.10;46.30
20866;DHT22;10593;48.398;10.698;2024-01-16T05:01:31;-1.10;46.60
20866;DHT22;10593;48.398;10.698;2024-01-16T05:03:57;-1.10;46.70
20866;DHT22;10593;48.398;10.698;2024-01-16T05:06:22;-1.20;46.70
20866;DHT22;10593;48.398;10.698;2024-01-16T05:08:48;-1.20;46.70
20866;DHT22;10593;48.398;10.698;2024-01-16T05:11:14;-1.20;46.70
20866;DHT22;10593;48.398;10.698;2024-01-16T05:13:39;-1.20;46.70
20866;DHT22;10593;48.398;10.698;2024-01-16T05:16:05;-1.20;46.70
20866;DHT22;10593;48.398;10.698;2024-01-16T05:18:31;-1.20;46.70
20866;DHT22;10593;48.398;10.698;2024-01-16T05:20:58;-1.20;46.80
20866;DHT22;10593;48.398;10.698;2024-01-16T05:23:24;-1.20;47.00
20866;DHT22;10593;48.398;10.698;2024-01-16T05:25:50;-1.20;47.20
20866;DHT22;10593;48.398;10.698;2024-01-16T05:28:16;-1.20;47.20
20866;DHT22;10593;48.398;10.698;2024-01-16T05:30:41;-1.10;47.30
20866;DHT22;10593;48.398;10.698;2024-01-16T05:33:08;-1.20;47.20
20866;DHT22;10593;48.398;10.698;2024-01-16T05:35:34;-1.10;47.20
20866;DHT22;10593;48.398;10.698;2024-01-16T05:37:59;-1.20;46.70
20866;DHT22;10593;48.398;10.698;2024-01-16T05:40:26;-1.20;46.70
20866;DHT22;10593;48.398;10.698;2024-01-16T05:42:51;-1.20;46.60
20866;DHT22;10593;48.398;10.698;2024-01-16T05:45:18;-1.20;46.10
20866;DHT22;10593;48.398;10.698;2024-01-16T05:47:43;-1.20;45.70
20866;DHT22;10593;48.398;10.698;2024-01-16T05:50:10;-1.30;45.50
20866;DHT22;10593;48.398;10.698;2024-01-16T05:52:36;-1.30;45.50
20866;DHT22;10593;48.398;10.698;2024-01-16T05:55:02;-1.40;45.60
20866;DHT22;10593;48.398;10.698;2024-01-16T05:57:29;-1.40;45.90
20866;DHT22;10593;48.398;10.698;2024-01-16T05:59:59;-1.40;46.00
20866;DHT22;10593;48.398;10.698;2024-01-16T06:02:27;-1.50;46.00
20866;DHT22;10593;48.398;10.698;2024-01-16T06:04:53;-1.50;46.10
20866;DHT22;10593;48.398;10.698;2024-01-16T06:07:19;-1.50;46.20
20866;DHT22;10593;48.398;10.698;2024-01-16T06:09:44;-1.50;46.30
20866;DHT22;10593;48.398;10.698;2024-01-16T06:12:10;-1.50;46.40
20866;DHT22;10593;48.398;10.698;2024-01-16T06:14:37;-1.60;46.40
20866;DHT22;10593;48.398;10.698;2024-01-16T06:17:03;-1.60;46.40
20866;DHT22;10593;48.398;10.698;2024-01-16T06:19:34;-1.60;46.40
20866;DHT22;10593;48.398;10.698;2024-01-16T06:21:59;-1.60;46.40
20866;DHT22;10593;48.398;10.698;2024-01-16T06:24:26;-1.60;46.40
20866;DHT22;10593;48.398;10.698;2024-01-16T06:26:51;-1.60;46.80
20866;DHT22;10593;48.398;10.698;2024-01-16T06:29:17;-1.60;46.80
20866;DHT22;10593;48.398;10.698;2024-01-16T06:31:43;-1.60;46.70
20866;DHT22;10593;48.398;10.698;2024-01-16T06:34:08;-1.60;46.40
20866;DHT22;10593;48.398;10.698;2024-01-16T06:36:34;-1.60;46.40
20866;DHT22;10593;48.398;10.698;2024-01-16T06:39:00;-1.60;46.40
20866;DHT22;10593;48.398;10.698;2024-01-16T06:41:25;-1.60;46.40
20866;DHT22;10593;48.398;10.698;2024-01-16T06:43:51;-1.70;46.30
20866;DHT22;10593;48.398;10.698;2024-01-16T06:46:17;-1.70;46.30
20866;DHT22;10593;48.398;10.698;2024-01-16T06:48:42;-1.70;46.30
20866;DHT22;10593;48.398;10.698;2024-01-16T06:51:08;-1.70;46.80
20866;DHT22;10593;48.398;10.698;2024-01-16T06:53:36;-1.70;46.90
20866;DHT22;10593;48.398;10.698;2024-01-16T06:56:01;-1.70;47.10
20866;DHT22;10593;48.398;10.698;2024-01-16T06:58:28;-1.70;47.20
20866;DHT22;10593;48.398;10.698;2024-01-16T07:00:54;-1.70;47.10
20866;DHT22;10593;48.398;10.698;2024-01-16T07:03:19;-1.70;46.80
20866;DHT22;10593;48.398;10.698;2024-01-16T07:05:45;-1.70;46.50
20866;DHT22;10593;48.398;10.698;2024-01-16T07:08:11;-1.70;46.30
20866;DHT22;10593;48.398;10.698;2024-01-16T07:10:36;-1.70;46.30
20866;DHT22;10593;48.398;10.698;2024-01-16T07:13:02;-1.70;46.30
20866;DHT22;10593;48.398;10.698;2024-01-16T07:15:28;-1.70;46.30
20866;DHT22;10593;48.398;10.698;2024-01-16T07:17:54;-1.70;46.70
20866;DHT22;10593;48.398;10.698;2024-01-16T07:20:19;-1.80;46.80
20866;DHT22;10593;48.398;10.698;2024-01-16T07:22:45;-1.70;47.00
20866;DHT22;10593;48.398;10.698;2024-01-16T07:25:11;-1.80;47.00
20866;DHT22;10593;48.398;10.698;2024-01-16T07:27:37;-1.80;47.20
20866;DHT22;10593;48.398;10.698;2024-01-16T07:30:06;-1.80;47.20
20866;DHT22;10593;48.398;10.698;2024-01-16T07:32:33;-1.80;47.30
20866;DHT22;10593;48.398;10.698;2024-01-16T07:34:59;-1.80;47.40
20866;DHT22;10593;48.398;10.698;2024-01-16T07:37:25;-1.80;47.50
20866;DHT22;10593;48.398;10.698;2024-01-16T07:39:50;-1.80;47.50
20866;DHT22;10593;48.398;10.698;2024-01-16T07:42:16;-1.80;47.50
20866;DHT22;10593;48.398;10.698;2024-01-16T07:44:42;-1.80;47.50
20866;DHT22;10593;48.398;10.698;2024-01-16T07:47:07;-1.80;47.50
20866;DHT22;10593;48.398;10.698;2024-01-16T07:49:34;-1.80;47.60
20866;DHT22;10593;48.398;10.698;2024-01-16T07:52:00;-1.80;47.60
20866;DHT22;10593;48.398;10.698;2024-01-16T07:54:25;-1.80;47.80
20866;DHT22;10593;48.398;10.698;2024-01-16T07:56:51;-1.80;47.80
20866;DHT22;10593;48.398;10.698;2024-01-16T07:59:17;-1.80;47.90
20866;DHT22;10593;48.398;10.698;2024-01-16T08:01:43;-1.80;47.90
20866;DHT22;10593;48.398;10.698;2024-01-16T08:04:09;-1.80;47.90
20866;DHT22;10593;48.398;10.698;2024-01-16T08:06:35;-1.80;48.00
20866;DHT22;10593;48.398;10.698;2024-01-16T08:09:01;-1.80;48.10
20866;DHT22;10593;48.398;10.698;2024-01-16T08:11:26;-1.70;48.20
20866;DHT22;10593;48.398;10.698;2024-01-16T08:13:52;-1.70;48.30
20866;DHT22;10593;48.398;10.698;2024-01-16T08:16:18;-1.70;48.40
20866;DHT22;10593;48.398;10.698;2024-01-16T08:18:43;-1.70;48.50
20866;DHT22;10593;48.398;10.698;2024-01-16T08:21:09;-1.70;48.50
20866;DHT22;10593;48.398;10.698;2024-01-16T08:23:35;-1.70;48.60
20866;DHT22;10593;48.398;10.698;2024-01-16T08:26:00;-1.70;48.70
20866;DHT22;10593;48.398;10.698;2024-01-16T08:28:26;-1.70;49.40
20866;DHT22;10593;48.398;10.698;2024-01-16T08:30:52;-1.60;49.10
20866;DHT22;10593;48.398;10.698;2024-01-16T08:33:18;-1.60;49.20
20866;DHT22;10593;48.398;10.698;2024-01-16T08:35:44;-1.60;49.30
20866;DHT22;10593;48.398;10.698;2024-01-16T08:38:10;-1.60;49.40
20866;DHT22;10593;48.398;10.698;2024-01-16T08:40:36;-1.50;49.50
20866;DHT22;10593;48.398;10.698;2024-01-16T08:43:01;-1.50;49.60
20866;DHT22;10593;48.398;10.698;2024-01-16T08:45:29;-1.50;49.60
20866;DHT22;10593;48.398;10.698;2024-01-16T08:47:54;-1.40;49.80
20866;DHT22;10593;48.398;10.698;2024-01-16T08:50:20;-1.40;49.80
20866;DHT22;10593;48.398;10.698;2024-01-16T08:52:46;-1.40;49.80
20866;DHT22;10593;48.398;10.698;2024-01-16T08:55:11;-1.30;49.80
20866;DHT22;10593;48.398;10.698;2024-01-16T08:57:37;-1.30;49.80
20866;DHT22;10593;48.398;10.698;2024-01-16T09:00:06;-1.30;49.80
20866;DHT22;10593;48.398;10.698;2024-01-16T09:02:37;-1.30;49.90
20866;DHT22;10593;48.398;10.698;2024-01-16T09:05:02;-1.20;49.90
20866;DHT22;10593;48.398;10.698;2024-01-16T09:07:28;-1.20;50.00
20866;DHT22;10593;48.398;10.698;2024-01-16T09:09:54;-1.10;50.00
20866;DHT22;10593;48.398;10.698;2024-01-16T09:12:20;-1.10;50.00
20866;DHT22;10593;48.398;10.698;2024-01-16T09:14:46;-1.10;50.00
20866;DHT22;10593;48.398;10.698;2024-01-16T09:17:11;-1.00;50.10
20866;DHT22;10593;48.398;10.698;2024-01-16T09:19:37;-1.00;50.10
20866;DHT22;10593;48.398;10.698;2024-01-16T09:22:03;-1.00;50.10
20866;DHT22;10593;48.398;10.698;2024-01-16T09:24:29;-0.90;50.20
20866;DHT22;10593;48.398;10.698;2024-01-16T09:26:55;-0.90;50.30
20866;DHT22;10593;48.398;10.698;2024-01-16T09:29:21;-0.90;50.30
20866;DHT22;10593;48.398;10.698;2024-01-16T09:31:47;-0.80;50.30
20866;DHT22;10593;48.398;10.698;2024-01-16T09:34:13;-0.80;50.30
20866;DHT22;10593;48.398;10.698;2024-01-16T09:36:39;-0.80;50.20
20866;DHT22;10593;48.398;10.698;2024-01-16T09:39:06;-0.80;50.20
20866;DHT22;10593;48.398;10.698;2024-01-16T09:41:34;-0.70;50.10
20866;DHT22;10593;48.398;10.698;2024-01-16T09:44:00;-0.70;50.10
20866;DHT22;10593;48.398;10.698;2024-01-16T09:46:26;-0.70;50.00
20866;DHT22;10593;48.398;10.698;2024-01-16T09:48:54;-0.60;50.00
20866;DHT22;10593;48.398;10.698;2024-01-16T09:51:21;-0.60;49.90
20866;DHT22;10593;48.398;10.698;2024-01-16T09:53:47;-0.60;49.90
20866;DHT22;10593;48.398;10.698;2024-01-16T09:56:16;-0.60;50.00
20866;DHT22;10593;48.398;10.698;2024-01-16T09:58:48;-0.50;50.00
20866;DHT22;10593;48.398;10.698;2024-01-16T10:01:16;-0.50;50.00
20866;DHT22;10593;48.398;10.698;2024-01-16T10:03:44;-0.50;50.20
20866;DHT22;10593;48.398;10.698;2024-01-16T10:06:11;-0.50;50.40
20866;DHT22;10593;48.398;10.698;2024-01-16T10:08:37;-0.40;50.50
20866;DHT22;10593;48.398;10.698;2024-01-16T10:11:03;-0.40;50.50
20866;DHT22;10593;48.398;10.698;2024-01-16T10:13:31;-0.40;50.60
20866;DHT22;10593;48.398;10.698;2024-01-16T10:15:58;-0.40;50.50
20866;DHT22;10593;48.398;10.698;2024-01-16T10:18:26;-0.40;50.50
20866;DHT22;10593;48.398;10.698;2024-01-16T10:20:52;-0.30;50.70
20866;DHT22;10593;48.398;10.698;2024-01-16T10:23:23;-0.30;50.60
20866;DHT22;10593;48.398;10.698;2024-01-16T10:26:12;-0.30;50.70
20866;DHT22;10593;48.398;10.698;2024-01-16T10:28:42;-0.20;50.80
20866;DHT22;10593;48.398;10.698;2024-01-16T10:31:09;-0.20;50.80
20866;DHT22;10593;48.398;10.698;2024-01-16T10:33:36;-0.20;50.80
20866;DHT22;10593;48.398;10.698;2024-01-16T10:36:15;-0.10;50.90
20866;DHT22;10593;48.398;10.698;2024-01-16T10:38:46;-0.10;50.80
20866;DHT22;10593;48.398;10.698;2024-01-16T10:41:14;0.00;50.90
20866;DHT22;10593;48.398;10.698;2024-01-16T10:43:41;0.00;50.70
20866;DHT22;10593;48.398;10.698;2024-01-16T10:46:17;0.00;50.50
20866;DHT22;10593;48.398;10.698;2024-01-16T10:48:44;0.10;50.40
20866;DHT22;10593;48.398;10.698;2024-01-16T10:51:23;0.10;50.40
20866;DHT22;10593;48.398;10.698;2024-01-16T10:53:54;0.10;50.40
20866;DHT22;10593;48.398;10.698;2024-01-16T10:56:24;0.20;50.40
20866;DHT22;10593;48.398;10.698;2024-01-16T10:59:31;0.20;50.30
20866;DHT22;10593;48.398;10.698;2024-01-16T11:02:04;0.20;50.40
20866;DHT22;10593;48.398;10.698;2024-01-16T11:04:35;0.30;50.50
20866;DHT22;10593;48.398;10.698;2024-01-16T11:07:03;0.30;50.40
20866;DHT22;10593;48.398;10.698;2024-01-16T11:09:31;0.30;50.30
20866;DHT22;10593;48.398;10.698;2024-01-16T11:11:57;0.40;50.40
20866;DHT22;10593;48.398;10.698;2024-01-16T11:14:25;0.40;50.30
20866;DHT22;10593;48.398;10.698;2024-01-16T11:16:51;0.40;50.30
20866;DHT22;10593;48.398;10.698;2024-01-16T11:19:20;0.40;50.30
20866;DHT22;10593;48.398;10.698;2024-01-16T11:21:47;0.40;50.10
20866;DHT22;10593;48.398;10.698;2024-01-16T11:24:14;0.50;50.20
20866;DHT22;10593;48.398;10.698;2024-01-16T11:26:40;0.50;50.10
20866;DHT22;10593;48.398;10.698;2024-01-16T11:31:57;0.50;50.10
20866;DHT22;10593;48.398;10.698;2024-01-16T11:37:08;0.50;50.30
20866;DHT22;10593;48.398;10.698;2024-01-16T11:39:36;0.60;51.10
20866;DHT22;10593;48.398;10.698;2024-01-16T11:42:02;0.60;50.60
20866;DHT22;10593;48.398;10.698;2024-01-16T11:47:23;0.60;50.70
20866;DHT22;10593;48.398;10.698;2024-01-16T11:49:51;0.70;50.80
20866;DHT22;10593;48.398;10.698;2024-01-16T11:52:43;0.70;50.80
20866;DHT22;10593;48.398;10.698;2024-01-16T11:55:28;0.70;50.90
20866;DHT22;10593;48.398;10.698;2024-01-16T12:01:10;0.80;51.10
20866;DHT22;10593;48.398;10.698;2024-01-16T12:03:37;0.80;51.10
20866;DHT22;10593;48.398;10.698;2024-01-16T12:06:03;0.80;51.10
20866;DHT22;10593;48.398;10.698;2024-01-16T12:08:32;0.90;50.90
20866;DHT22;10593;48.398;10.698;2024-01-16T12:10:57;0.90;50.90
20866;DHT22;10593;48.398;10.698;2024-01-16T12:13:25;0.90;50.80
20866;DHT22;10593;48.398;10.698;2024-01-16T12:16:03;1.00;50.70
20866;DHT22;10593;48.398;10.698;2024-01-16T12:18:30;1.00;50.60
20866;DHT22;10593;48.398;10.698;2024-01-16T12:20:55;1.00;50.60
20866;DHT22;10593;48.398;10.698;2024-01-16T12:23:21;1.00;50.50
20866;DHT22;10593;48.398;10.698;2024-01-16T12:25:52;1.10;50.40
20866;DHT22;10593;48.398;10.698;2024-01-16T12:28:20;1.10;50.30
20866;DHT22;10593;48.398;10.698;2024-01-16T12:30:50;1.10;50.20
20866;DHT22;10593;48.398;10.698;2024-01-16T12:33:22;1.10;50.00
20866;DHT22;10593;48.398;10.698;2024-01-16T12:35:48;1.20;50.10
20866;DHT22;10593;48.398;10.698;2024-01-16T12:38:14;1.20;50.10
20866;DHT22;10593;48.398;10.698;2024-01-16T12:40:49;1.20;50.00
20866;DHT22;10593;48.398;10.698;2024-01-16T12:43:19;1.20;50.00
20866;DHT22;10593;48.398;10.698;2024-01-16T12:45:46;1.30;50.10
20866;DHT22;10593;48.398;10.698;2024-01-16T12:48:11;1.30;50.10
20866;DHT22;10593;48.398;10.698;2024-01-16T12:50:37;1.30;50.00
20866;DHT22;10593;48.398;10.698;2024-01-16T12:53:05;1.30;49.80
20866;DHT22;10593;48.398;10.698;2024-01-16T12:55:35;1.30;49.80
20866;DHT22;10593;48.398;10.698;2024-01-16T12:58:21;1.30;49.70
20866;DHT22;10593;48.398;10.698;2024-01-16T13:00:52;1.30;49.40
20866;DHT22;10593;48.398;10.698;2024-01-16T13:03:20;1.40;49.70
20866;DHT22;10593;48.398;10.698;2024-01-16T13:06:00;1.40;49.70
20866;DHT22;10593;48.398;10.698;2024-01-16T13:08:26;1.40;49.50
20866;DHT22;10593;48.398;10.698;2024-01-16T13:11:03;1.40;49.60
20866;DHT22;10593;48.398;10.698;2024-01-16T13:13:29;1.40;49.40
20866;DHT22;10593;48.398;10.698;2024-01-16T13:15:56;1.40;49.40
20866;DHT22;10593;48.398;10.698;2024-01-16T13:18:27;1.50;49.50
20866;DHT22;10593;48.398;10.698;2024-01-16T13:20:56;1.50;49.40
20866;DHT22;10593;48.398;10.698;2024-01-16T13:23:23;1.50;49.60
20866;DHT22;10593;48.398;10.698;2024-01-16T13:25:53;1.50;49.80
20866;DHT22;10593;48.398;10.698;2024-01-16T13:28:21;1.50;49.80
20866;DHT22;10593;48.398;10.698;2024-01-16T13:30:48;1.60;49.70
20866;DHT22;10593;48.398;10.698;2024-01-16T13:33:14;1.60;49.50
20866;DHT22;10593;48.398;10.698;2024-01-16T13:35:45;1.60;49.30
20866;DHT22;10593;48.398;10.698;2024-01-16T13:38:12;1.60;49.10
20866;DHT22;10593;48.398;10.698;2024-01-16T13:40:38;1.70;49.20
20866;DHT22;10593;48.398;10.698;2024-01-16T13:43:04;1.60;48.90
20866;DHT22;10593;48.398;10.698;2024-01-16T13:45:32;1.70;48.90
20866;DHT22;10593;48.398;10.698;2024-01-16T13:47:59;1.70;48.90
20866;DHT22;10593;48.398;10.698;2024-01-16T13:50:26;1.70;48.90
20866;DHT22;10593;48.398;10.698;2024-01-16T13:52:52;1.70;48.90
20866;DHT22;10593;48.398;10.698;2024-01-16T13:55:21;1.70;48.90
20866;DHT22;10593;48.398;10.698;2024-01-16T13:57:47;1.70;48.90
20866;DHT22;10593;48.398;10.698;2024-01-16T14:00:14;1.80;49.00
20866;DHT22;10593;48.398;10.698;2024-01-16T14:02:47;1.80;49.00
20866;DHT22;10593;48.398;10.698;2024-01-16T14:05:15;1.70;48.90
20866;DHT22;10593;48.398;10.698;2024-01-16T14:07:49;1.80;49.00
20866;DHT22;10593;48.398;10.698;2024-01-16T14:10:17;1.80;49.10
20866;DHT22;10593;48.398;10.698;2024-01-16T14:12:45;1.80;49.00
20866;DHT22;10593;48.398;10.698;2024-01-16T14:15:13;1.80;49.00
20866;DHT22;10593;48.398;10.698;2024-01-16T14:17:45;1.80;49.00
20866;DHT22;10593;48.398;10.698;2024-01-16T14:20:13;1.80;48.80
20866;DHT22;10593;48.398;10.698;2024-01-16T14:22:40;1.80;48.60
20866;DHT22;10593;48.398;10.698;2024-01-16T14:25:10;1.90;48.70
20866;DHT22;10593;48.398;10.698;2024-01-16T14:27:57;1.90;48.60
20866;DHT22;10593;48.398;10.698;2024-01-16T14:30:24;1.80;48.30
20866;DHT22;10593;48.398;10.698;2024-01-16T14:32:51;1.90;48.60
20866;DHT22;10593;48.398;10.698;2024-01-16T14:35:17;1.90;48.70
20866;DHT22;10593;48.398;10.698;2024-01-16T14:37:43;1.90;48.80
20866;DHT22;10593;48.398;10.698;2024-01-16T14:40:10;1.90;48.80
20866;DHT22;10593;48.398;10.698;2024-01-16T14:42:48;1.90;48.80
20866;DHT22;10593;48.398;10.698;2024-01-16T14:45:17;1.90;48.70
20866;DHT22;10593;48.398;10.698;2024-01-16T14:47:43;1.90;48.80
20866;DHT22;10593;48.398;10.698;2024-01-16T14:50:11;1.90;49.00
20866;DHT22;10593;48.398;10.698;2024-01-16T14:52:38;1.90;49.10
20866;DHT22;10593;48.398;10.698;2024-01-16T14:55:05;1.90;49.10
20866;DHT22;10593;48.398;10.698;2024-01-16T14:57:34;1.80;49.00
20866;DHT22;10593;48.398;10.698;2024-01-16T15:00:10;1.90;49.10
20866;DHT22;10593;48.398;10.698;2024-01-16T15:02:39;1.80;49.00
20866;DHT22;10593;48.398;10.698;2024-01-16T15:05:05;1.80;49.00
20866;DHT22;10593;48.398;10.698;2024-01-16T15:07:32;1.80;49.50
20866;DHT22;10593;48.398;10.698;2024-01-16T15:09:57;1.80;49.00
20866;DHT22;10593;48.398;10.698;2024-01-16T15:12:23;1.80;49.00
20866;DHT22;10593;48.398;10.698;2024-01-16T15:14:48;1.80;49.00
20866;DHT22;10593;48.398;10.698;2024-01-16T15:17:14;1.80;49.00
20866;DHT22;10593;48.398;10.698;2024-01-16T15:19:40;1.80;49.30
20866;DHT22;10593;48.398;10.698;2024-01-16T15:22:05;1.80;49.30
20866;DHT22;10593;48.398;10.698;2024-01-16T15:24:31;1.80;49.30
20866;DHT22;10593;48.398;10.698;2024-01-16T15:26:57;1.80;49.00
20866;DHT22;10593;48.398;10.698;2024-01-16T15:29:23;1.80;49.00
20866;DHT22;10593;48.398;10.698;2024-01-16T15:31:49;1.80;49.00
20866;DHT22;10593;48.398;10.698;2024-01-16T15:34:17;1.80;49.00